sensor_id;sensor_type;location;lat;lon;timestamp;P1;durP1;ratioP1;P2;durP2;ratioP2
79578;SDS011;69051;52.406;5.280;2023-08-01T00:00:25;9.93;;;2.50;;
79578;SDS011;69051;52.406;5.280;2023-08-01T00:02:52;11.88;;;2.40;;
79578;SDS011;69051;52.406;5.280;2023-08-01T00:05:18;8.98;;;2.08;;
79578;SDS011;69051;52.406;5.280;2023-08-01T00:07:45;14.38;;;2.45;;
79578;SDS011;69051;52.406;5.280;2023-08-01T00:10:11;10.98;;;2.38;;
79578;SDS011;69051;52.406;5.280;2023-08-01T00:12:38;10.68;;;2.65;;
79578;SDS011;69051;52.406;5.280;2023-08-01T00:15:04;13.57;;;2.75;;
79578;SDS011;69051;52.406;5.280;2023-08-01T00:17:31;13.70;;;2.20;;
79578;SDS011;69051;52.406;5.280;2023-08-01T00:19:58;9.23;;;2.80;;
79578;SDS011;69051;52.406;5.280;2023-08-01T00:22:24;20.98;;;3.10;;
79578;SDS011;69051;52.406;5.280;2023-08-01T00:24:51;8.48;;;2.78;;
79578;SDS011;69051;52.406;5.280;2023-08-01T00:27:17;7.75;;;2.35;;
79578;SDS011;69051;52.406;5.280;2023-08-01T00:29:44;10.73;;;2.53;;
79578;SDS011;69051;52.406;5.280;2023-08-01T00:32:11;11.57;;;2.45;;
79578;SDS011;69051;52.406;5.280;2023-08-01T00:34:37;14.23;;;3.20;;
79578;SDS011;69051;52.406;5.280;2023-08-01T00:37:04;12.50;;;2.60;;
79578;SDS011;69051;52.406;5.280;2023-08-01T00:39:31;10.13;;;3.42;;
79578;SDS011;69051;52.406;5.280;2023-08-01T00:41:58;14.90;;;2.92;;
79578;SDS011;69051;52.406;5.280;2023-08-01T00:44:25;9.70;;;2.88;;
79578;SDS011;69051;52.406;5.280;2023-08-01T00:46:51;8.65;;;2.75;;
79578;SDS011;69051;52.406;5.280;2023-08-01T00:49:18;9.88;;;2.75;;
79578;SDS011;69051;52.406;5.280;2023-08-01T00:51:44;9.52;;;2.63;;
79578;SDS011;69051;52.406;5.280;2023-08-01T00:54:11;10.07;;;2.45;;
79578;SDS011;69051;52.406;5.280;2023-08-01T00:56:37;14.23;;;3.05;;
79578;SDS011;69051;52.406;5.280;2023-08-01T00:59:04;7.53;;;2.80;;
79578;SDS011;69051;52.406;5.280;2023-08-01T01:01:31;10.68;;;2.75;;
79578;SDS011;69051;52.406;5.280;2023-08-01T01:03:58;10.65;;;2.67;;
79578;SDS011;69051;52.406;5.280;2023-08-01T01:06:26;8.63;;;3.17;;
79578;SDS011;69051;52.406;5.280;2023-08-01T01:08:56;12.05;;;2.88;;
79578;SDS011;69051;52.406;5.280;2023-08-01T01:11:23;10.55;;;3.15;;
79578;SDS011;69051;52.406;5.280;2023-08-01T01:13:49;8.52;;;2.80;;
79578;SDS011;69051;52.406;5.280;2023-08-01T01:16:19;11.65;;;3.22;;
79578;SDS011;69051;52.406;5.280;2023-08-01T01:18:46;15.27;;;3.22;;
79578;SDS011;69051;52.406;5.280;2023-08-01T01:21:13;9.15;;;3.10;;
79578;SDS011;69051;52.406;5.280;2023-08-01T01:23:39;13.27;;;2.95;;
79578;SDS011;69051;52.406;5.280;2023-08-01T01:26:06;16.48;;;4.45;;
79578;SDS011;69051;52.406;5.280;2023-08-01T01:28:33;9.50;;;2.75;;
79578;SDS011;69051;52.406;5.280;2023-08-01T01:31:01;12.85;;;3.72;;
79578;SDS011;69051;52.406;5.280;2023-08-01T01:33:27;15.90;;;3.72;;
79578;SDS011;69051;52.406;5.280;2023-08-01T01:35:54;15.73;;;3.47;;
79578;SDS011;69051;52.406;5.280;2023-08-01T01:38:21;11.55;;;3.22;;
79578;SDS011;69051;52.406;5.280;2023-08-01T01:40:47;11.90;;;3.70;;
79578;SDS011;69051;52.406;5.280;2023-08-01T01:43:14;17.50;;;3.15;;
79578;SDS011;69051;52.406;5.280;2023-08-01T01:45:40;12.52;;;2.80;;
79578;SDS011;69051;52.406;5.280;2023-08-01T01:48:07;13.40;;;3.40;;
79578;SDS011;69051;52.406;5.280;2023-08-01T01:50:33;13.38;;;3.13;;
79578;SDS011;69051;52.406;5.280;2023-08-01T01:53:00;13.73;;;3.25;;
79578;SDS011;69051;52.406;5.280;2023-08-01T01:55:27;13.65;;;3.05;;
79578;SDS011;69051;52.406;5.280;2023-08-01T01:57:53;11.82;;;3.17;;
79578;SDS011;69051;52.406;5.280;2023-08-01T02:00:20;11.43;;;3.08;;
79578;SDS011;69051;52.406;5.280;2023-08-01T02:02:46;9.85;;;3.50;;
79578;SDS011;69051;52.406;5.280;2023-08-01T02:05:13;13.52;;;3.40;;
79578;SDS011;69051;52.406;5.280;2023-08-01T02:07:39;14.25;;;3.50;;
79578;SDS011;69051;52.406;5.280;2023-08-01T02:10:06;14.23;;;4.10;;
79578;SDS011;69051;52.406;5.280;2023-08-01T02:12:33;13.10;;;3.80;;
79578;SDS011;69051;52.406;5.280;2023-08-01T02:15:01;20.88;;;3.83;;
79578;SDS011;69051;52.406;5.280;2023-08-01T02:17:28;14.18;;;3.53;;
79578;SDS011;69051;52.406;5.280;2023-08-01T02:19:55;12.25;;;3.75;;
79578;SDS011;69051;52.406;5.280;2023-08-01T02:22:22;18.55;;;3.80;;
79578;SDS011;69051;52.406;5.280;2023-08-01T02:24:50;14.25;;;3.60;;
79578;SDS011;69051;52.406;5.280;2023-08-01T02:27:17;15.93;;;3.50;;
79578;SDS011;69051;52.406;5.280;2023-08-01T02:29:43;10.60;;;3.75;;
79578;SDS011;69051;52.406;5.280;2023-08-01T02:32:10;11.88;;;3.08;;
79578;SDS011;69051;52.406;5.280;2023-08-01T02:34:36;17.17;;;3.53;;
79578;SDS011;69051;52.406;5.280;2023-08-01T02:37:03;13.85;;;3.35;;
79578;SDS011;69051;52.406;5.280;2023-08-01T02:39:29;9.50;;;2.85;;
79578;SDS011;69051;52.406;5.280;2023-08-01T02:41:56;10.30;;;3.10;;
79578;SDS011;69051;52.406;5.280;2023-08-01T02:44:22;12.15;;;2.80;;
79578;SDS011;69051;52.406;5.280;2023-08-01T02:46:49;6.82;;;2.15;;
79578;SDS011;69051;52.406;5.280;2023-08-01T02:49:15;10.23;;;3.58;;
79578;SDS011;69051;52.406;5.280;2023-08-01T02:51:42;7.90;;;2.42;;
79578;SDS011;69051;52.406;5.280;2023-08-01T02:54:08;10.50;;;2.60;;
79578;SDS011;69051;52.406;5.280;2023-08-01T02:56:35;13.77;;;3.00;;
79578;SDS011;69051;52.406;5.280;2023-08-01T02:59:07;12.85;;;2.45;;
79578;SDS011;69051;52.406;5.280;2023-08-01T03:01:37;10.70;;;2.42;;
79578;SDS011;69051;52.406;5.280;2023-08-01T03:04:04;11.13;;;2.72;;
79578;SDS011;69051;52.406;5.280;2023-08-01T03:06:32;11.52;;;2.78;;
79578;SDS011;69051;52.406;5.280;2023-08-01T03:08:59;9.98;;;3.20;;
79578;SDS011;69051;52.406;5.280;2023-08-01T03:11:26;17.25;;;3.92;;
79578;SDS011;69051;52.406;5.280;2023-08-01T03:13:52;9.13;;;2.78;;
79578;SDS011;69051;52.406;5.280;2023-08-01T03:16:19;9.90;;;2.80;;
79578;SDS011;69051;52.406;5.280;2023-08-01T03:18:45;11.45;;;2.95;;
79578;SDS011;69051;52.406;5.280;2023-08-01T03:21:12;10.82;;;2.75;;
79578;SDS011;69051;52.406;5.280;2023-08-01T03:23:39;16.00;;;3.28;;
79578;SDS011;69051;52.406;5.280;2023-08-01T03:26:05;15.68;;;3.50;;
79578;SDS011;69051;52.406;5.280;2023-08-01T03:28:32;16.23;;;3.42;;
79578;SDS011;69051;52.406;5.280;2023-08-01T03:30:59;13.70;;;3.70;;
79578;SDS011;69051;52.406;5.280;2023-08-01T03:33:25;12.95;;;3.10;;
79578;SDS011;69051;52.406;5.280;2023-08-01T03:35:52;11.15;;;3.33;;
79578;SDS011;69051;52.406;5.280;2023-08-01T03:38:19;13.55;;;3.63;;
79578;SDS011;69051;52.406;5.280;2023-08-01T03:40:45;10.50;;;3.35;;
79578;SDS011;69051;52.406;5.280;2023-08-01T03:43:12;12.68;;;3.08;;
79578;SDS011;69051;52.406;5.280;2023-08-01T03:45:39;12.65;;;3.00;;
79578;SDS011;69051;52.406;5.280;2023-08-01T03:48:06;8.68;;;3.28;;
79578;SDS011;69051;52.406;5.280;2023-08-01T03:50:32;9.07;;;3.75;;
79578;SDS011;69051;52.406;5.280;2023-08-01T03:52:59;13.80;;;3.30;;
79578;SDS011;69051;52.406;5.280;2023-08-01T03:55:25;10.88;;;3.80;;
79578;SDS011;69051;52.406;5.280;2023-08-01T03:57:52;14.55;;;3.08;;
79578;SDS011;69051;52.406;5.280;2023-08-01T04:00:18;16.35;;;4.00;;
79578;SDS011;69051;52.406;5.280;2023-08-01T04:02:45;14.32;;;3.30;;
79578;SDS011;69051;52.406;5.280;2023-08-01T04:05:14;13.85;;;3.40;;
79578;SDS011;69051;52.406;5.280;2023-08-01T04:07:41;11.30;;;2.78;;
79578;SDS011;69051;52.406;5.280;2023-08-01T04:10:08;9.45;;;2.85;;
79578;SDS011;69051;52.406;5.280;2023-08-01T04:12:34;17.48;;;3.15;;
79578;SDS011;69051;52.406;5.280;2023-08-01T04:15:01;13.35;;;2.67;;
79578;SDS011;69051;52.406;5.280;2023-08-01T04:17:27;13.07;;;3.38;;
79578;SDS011;69051;52.406;5.280;2023-08-01T04:19:56;12.45;;;3.00;;
79578;SDS011;69051;52.406;5.280;2023-08-01T04:22:22;13.48;;;3.35;;
79578;SDS011;69051;52.406;5.280;2023-08-01T04:24:49;12.55;;;4.53;;
79578;SDS011;69051;52.406;5.280;2023-08-01T04:27:16;15.15;;;3.30;;
79578;SDS011;69051;52.406;5.280;2023-08-01T04:29:43;12.18;;;3.47;;
79578;SDS011;69051;52.406;5.280;2023-08-01T04:32:09;18.60;;;3.80;;
79578;SDS011;69051;52.406;5.280;2023-08-01T04:34:39;17.77;;;3.70;;
79578;SDS011;69051;52.406;5.280;2023-08-01T04:37:05;18.38;;;3.85;;
79578;SDS011;69051;52.406;5.280;2023-08-01T04:39:32;22.48;;;4.28;;
79578;SDS011;69051;52.406;5.280;2023-08-01T04:41:58;14.07;;;3.80;;
79578;SDS011;69051;52.406;5.280;2023-08-01T04:44:25;16.05;;;4.53;;
79578;SDS011;69051;52.406;5.280;2023-08-01T04:46:51;16.67;;;4.57;;
79578;SDS011;69051;52.406;5.280;2023-08-01T04:49:18;16.02;;;3.90;;
79578;SDS011;69051;52.406;5.280;2023-08-01T04:51:45;19.92;;;4.25;;
79578;SDS011;69051;52.406;5.280;2023-08-01T04:54:11;13.60;;;3.85;;
79578;SDS011;69051;52.406;5.280;2023-08-01T04:56:37;14.30;;;3.50;;
79578;SDS011;69051;52.406;5.280;2023-08-01T04:59:04;17.63;;;3.40;;
79578;SDS011;69051;52.406;5.280;2023-08-01T05:01:31;15.63;;;4.20;;
79578;SDS011;69051;52.406;5.280;2023-08-01T05:03:58;14.75;;;3.85;;
79578;SDS011;69051;52.406;5.280;2023-08-01T05:06:25;10.68;;;3.45;;
79578;SDS011;69051;52.406;5.280;2023-08-01T05:08:51;16.30;;;3.13;;
79578;SDS011;69051;52.406;5.280;2023-08-01T05:11:18;14.25;;;2.88;;
79578;SDS011;69051;52.406;5.280;2023-08-01T05:13:44;20.10;;;3.67;;
79578;SDS011;69051;52.406;5.280;2023-08-01T05:16:11;16.70;;;3.45;;
79578;SDS011;69051;52.406;5.280;2023-08-01T05:18:37;21.98;;;3.40;;
79578;SDS011;69051;52.406;5.280;2023-08-01T05:21:04;11.85;;;3.35;;
79578;SDS011;69051;52.406;5.280;2023-08-01T05:23:30;20.02;;;3.95;;
79578;SDS011;69051;52.406;5.280;2023-08-01T05:25:57;13.93;;;4.30;;
79578;SDS011;69051;52.406;5.280;2023-08-01T05:28:23;12.32;;;2.97;;
79578;SDS011;69051;52.406;5.280;2023-08-01T05:30:50;16.25;;;3.00;;
79578;SDS011;69051;52.406;5.280;2023-08-01T05:33:16;15.10;;;4.00;;
79578;SDS011;69051;52.406;5.280;2023-08-01T05:35:43;14.00;;;2.88;;
79578;SDS011;69051;52.406;5.280;2023-08-01T05:38:09;19.73;;;3.40;;
79578;SDS011;69051;52.406;5.280;2023-08-01T05:40:36;10.73;;;3.13;;
79578;SDS011;69051;52.406;5.280;2023-08-01T05:43:02;13.52;;;3.38;;
79578;SDS011;69051;52.406;5.280;2023-08-01T05:45:30;11.48;;;3.30;;
79578;SDS011;69051;52.406;5.280;2023-08-01T05:47:57;12.90;;;3.30;;
79578;SDS011;69051;52.406;5.280;2023-08-01T05:50:24;13.02;;;3.75;;
79578;SDS011;69051;52.406;5.280;2023-08-01T05:52:50;19.48;;;3.92;;
79578;SDS011;69051;52.406;5.280;2023-08-01T05:55:17;10.82;;;2.85;;
79578;SDS011;69051;52.406;5.280;2023-08-01T05:57:43;16.15;;;3.50;;
79578;SDS011;69051;52.406;5.280;2023-08-01T06:00:10;10.90;;;3.55;;
79578;SDS011;69051;52.406;5.280;2023-08-01T06:02:37;13.02;;;3.25;;
79578;SDS011;69051;52.406;5.280;2023-08-01T06:05:04;9.48;;;2.78;;
79578;SDS011;69051;52.406;5.280;2023-08-01T06:07:31;17.73;;;3.05;;
79578;SDS011;69051;52.406;5.280;2023-08-01T06:09:57;16.00;;;3.38;;
79578;SDS011;69051;52.406;5.280;2023-08-01T06:12:24;10.23;;;2.42;;
79578;SDS011;69051;52.406;5.280;2023-08-01T06:14:50;12.48;;;2.92;;
79578;SDS011;69051;52.406;5.280;2023-08-01T06:17:17;13.80;;;3.00;;
79578;SDS011;69051;52.406;5.280;2023-08-01T06:19:43;11.40;;;3.55;;
79578;SDS011;69051;52.406;5.280;2023-08-01T06:22:10;15.80;;;2.75;;
79578;SDS011;69051;52.406;5.280;2023-08-01T06:24:36;13.02;;;2.80;;
79578;SDS011;69051;52.406;5.280;2023-08-01T06:27:03;14.10;;;2.70;;
79578;SDS011;69051;52.406;5.280;2023-08-01T06:29:30;10.98;;;3.30;;
79578;SDS011;69051;52.406;5.280;2023-08-01T06:31:57;10.13;;;2.42;;
79578;SDS011;69051;52.406;5.280;2023-08-01T06:34:23;16.65;;;3.30;;
79578;SDS011;69051;52.406;5.280;2023-08-01T06:36:51;12.98;;;3.90;;
79578;SDS011;69051;52.406;5.280;2023-08-01T06:39:17;13.00;;;2.72;;
79578;SDS011;69051;52.406;5.280;2023-08-01T06:41:44;9.02;;;2.40;;
79578;SDS011;69051;52.406;5.280;2023-08-01T06:44:10;7.15;;;2.33;;
79578;SDS011;69051;52.406;5.280;2023-08-01T06:46:37;17.42;;;2.83;;
79578;SDS011;69051;52.406;5.280;2023-08-01T06:49:03;13.18;;;2.78;;
79578;SDS011;69051;52.406;5.280;2023-08-01T06:51:30;11.00;;;2.42;;
79578;SDS011;69051;52.406;5.280;2023-08-01T06:53:56;18.80;;;2.75;;
79578;SDS011;69051;52.406;5.280;2023-08-01T06:56:23;13.70;;;2.63;;
79578;SDS011;69051;52.406;5.280;2023-08-01T06:58:49;11.93;;;2.50;;
79578;SDS011;69051;52.406;5.280;2023-08-01T07:01:16;16.05;;;3.85;;
79578;SDS011;69051;52.406;5.280;2023-08-01T07:03:43;12.63;;;2.08;;
79578;SDS011;69051;52.406;5.280;2023-08-01T07:06:09;8.13;;;2.53;;
79578;SDS011;69051;52.406;5.280;2023-08-01T07:08:36;10.95;;;2.17;;
79578;SDS011;69051;52.406;5.280;2023-08-01T07:11:02;10.20;;;2.30;;
79578;SDS011;69051;52.406;5.280;2023-08-01T07:13:29;8.45;;;1.98;;
79578;SDS011;69051;52.406;5.280;2023-08-01T07:15:55;14.80;;;2.55;;
79578;SDS011;69051;52.406;5.280;2023-08-01T07:18:22;11.48;;;2.00;;
79578;SDS011;69051;52.406;5.280;2023-08-01T07:20:58;9.32;;;2.20;;
79578;SDS011;69051;52.406;5.280;2023-08-01T07:23:25;10.07;;;2.28;;
79578;SDS011;69051;52.406;5.280;2023-08-01T07:25:52;13.20;;;2.20;;
79578;SDS011;69051;52.406;5.280;2023-08-01T07:28:18;7.80;;;1.92;;
79578;SDS011;69051;52.406;5.280;2023-08-01T07:30:45;9.27;;;2.20;;
79578;SDS011;69051;52.406;5.280;2023-08-01T07:33:11;14.43;;;2.08;;
79578;SDS011;69051;52.406;5.280;2023-08-01T07:35:38;12.90;;;2.30;;
79578;SDS011;69051;52.406;5.280;2023-08-01T07:38:04;9.82;;;2.38;;
79578;SDS011;69051;52.406;5.280;2023-08-01T07:40:31;13.70;;;2.50;;
79578;SDS011;69051;52.406;5.280;2023-08-01T07:42:57;9.10;;;2.38;;
79578;SDS011;69051;52.406;5.280;2023-08-01T07:45:25;13.50;;;2.38;;
79578;SDS011;69051;52.406;5.280;2023-08-01T07:47:52;8.63;;;1.90;;
79578;SDS011;69051;52.406;5.280;2023-08-01T07:50:19;8.00;;;2.00;;
79578;SDS011;69051;52.406;5.280;2023-08-01T07:52:45;10.75;;;2.60;;
79578;SDS011;69051;52.406;5.280;2023-08-01T07:55:11;11.75;;;2.38;;
79578;SDS011;69051;52.406;5.280;2023-08-01T07:57:38;6.95;;;1.80;;
79578;SDS011;69051;52.406;5.280;2023-08-01T08:00:05;10.20;;;1.95;;
79578;SDS011;69051;52.406;5.280;2023-08-01T08:02:33;12.15;;;2.15;;
79578;SDS011;69051;52.406;5.280;2023-08-01T08:04:59;7.75;;;1.88;;
79578;SDS011;69051;52.406;5.280;2023-08-01T08:07:26;11.70;;;2.40;;
79578;SDS011;69051;52.406;5.280;2023-08-01T08:09:52;16.33;;;3.08;;
79578;SDS011;69051;52.406;5.280;2023-08-01T08:12:21;10.30;;;1.80;;
79578;SDS011;69051;52.406;5.280;2023-08-01T08:14:48;10.98;;;2.38;;
79578;SDS011;69051;52.406;5.280;2023-08-01T08:17:15;9.10;;;1.88;;
79578;SDS011;69051;52.406;5.280;2023-08-01T08:19:41;11.57;;;2.30;;
79578;SDS011;69051;52.406;5.280;2023-08-01T08:22:08;12.70;;;2.17;;
79578;SDS011;69051;52.406;5.280;2023-08-01T08:24:34;7.55;;;2.03;;
79578;SDS011;69051;52.406;5.280;2023-08-01T08:27:04;10.27;;;2.33;;
79578;SDS011;69051;52.406;5.280;2023-08-01T08:29:31;10.27;;;2.42;;
79578;SDS011;69051;52.406;5.280;2023-08-01T08:31:58;9.00;;;2.33;;
79578;SDS011;69051;52.406;5.280;2023-08-01T08:34:24;11.13;;;2.35;;
79578;SDS011;69051;52.406;5.280;2023-08-01T08:36:51;8.93;;;2.58;;
79578;SDS011;69051;52.406;5.280;2023-08-01T08:39:18;14.20;;;2.58;;
79578;SDS011;69051;52.406;5.280;2023-08-01T08:41:48;7.32;;;2.13;;
79578;SDS011;69051;52.406;5.280;2023-08-01T08:44:16;14.00;;;2.17;;
79578;SDS011;69051;52.406;5.280;2023-08-01T08:46:43;11.82;;;2.25;;
79578;SDS011;69051;52.406;5.280;2023-08-01T08:49:10;10.27;;;2.03;;
79578;SDS011;69051;52.406;5.280;2023-08-01T08:51:38;9.90;;;2.47;;
79578;SDS011;69051;52.406;5.280;2023-08-01T08:54:05;9.95;;;2.38;;
79578;SDS011;69051;52.406;5.280;2023-08-01T08:56:33;11.00;;;2.63;;
79578;SDS011;69051;52.406;5.280;2023-08-01T08:58:59;8.95;;;2.35;;
79578;SDS011;69051;52.406;5.280;2023-08-01T09:01:27;6.93;;;2.10;;
79578;SDS011;69051;52.406;5.280;2023-08-01T09:03:53;7.75;;;1.90;;
79578;SDS011;69051;52.406;5.280;2023-08-01T09:06:30;11.20;;;2.90;;
79578;SDS011;69051;52.406;5.280;2023-08-01T09:09:03;9.32;;;2.40;;
79578;SDS011;69051;52.406;5.280;2023-08-01T09:11:45;10.60;;;2.28;;
79578;SDS011;69051;52.406;5.280;2023-08-01T09:14:12;9.15;;;2.20;;
79578;SDS011;69051;52.406;5.280;2023-08-01T09:16:40;13.07;;;2.05;;
79578;SDS011;69051;52.406;5.280;2023-08-01T09:19:07;7.60;;;1.75;;
79578;SDS011;69051;52.406;5.280;2023-08-01T09:21:34;5.75;;;2.28;;
79578;SDS011;69051;52.406;5.280;2023-08-01T09:24:10;8.13;;;1.85;;
79578;SDS011;69051;52.406;5.280;2023-08-01T09:26:37;8.70;;;1.70;;
79578;SDS011;69051;52.406;5.280;2023-08-01T09:29:04;7.22;;;1.58;;
79578;SDS011;69051;52.406;5.280;2023-08-01T09:31:38;11.50;;;1.90;;
79578;SDS011;69051;52.406;5.280;2023-08-01T09:34:06;7.05;;;1.60;;
79578;SDS011;69051;52.406;5.280;2023-08-01T09:36:44;6.18;;;1.67;;
79578;SDS011;69051;52.406;5.280;2023-08-01T09:39:15;9.20;;;1.63;;
79578;SDS011;69051;52.406;5.280;2023-08-01T09:41:42;8.88;;;1.85;;
79578;SDS011;69051;52.406;5.280;2023-08-01T09:44:15;6.50;;;1.55;;
79578;SDS011;69051;52.406;5.280;2023-08-01T09:46:43;6.68;;;1.98;;
79578;SDS011;69051;52.406;5.280;2023-08-01T09:49:11;7.22;;;2.17;;
79578;SDS011;69051;52.406;5.280;2023-08-01T09:51:47;9.07;;;1.67;;
79578;SDS011;69051;52.406;5.280;2023-08-01T09:54:18;9.13;;;1.95;;
79578;SDS011;69051;52.406;5.280;2023-08-01T09:56:46;11.02;;;1.80;;
79578;SDS011;69051;52.406;5.280;2023-08-01T09:59:22;9.57;;;1.60;;
79578;SDS011;69051;52.406;5.280;2023-08-01T10:01:50;7.75;;;1.60;;
79578;SDS011;69051;52.406;5.280;2023-08-01T10:04:18;8.18;;;1.30;;
79578;SDS011;69051;52.406;5.280;2023-08-01T10:06:46;4.10;;;1.20;;
79578;SDS011;69051;52.406;5.280;2023-08-01T10:09:13;6.13;;;1.50;;
79578;SDS011;69051;52.406;5.280;2023-08-01T10:11:40;5.55;;;1.65;;
79578;SDS011;69051;52.406;5.280;2023-08-01T10:14:06;6.95;;;1.63;;
79578;SDS011;69051;52.406;5.280;2023-08-01T10:16:33;7.35;;;1.30;;
79578;SDS011;69051;52.406;5.280;2023-08-01T10:19:00;8.35;;;1.33;;
79578;SDS011;69051;52.406;5.280;2023-08-01T10:21:28;11.02;;;1.92;;
79578;SDS011;69051;52.406;5.280;2023-08-01T10:23:55;8.02;;;1.92;;
79578;SDS011;69051;52.406;5.280;2023-08-01T10:26:24;9.55;;;1.90;;
79578;SDS011;69051;52.406;5.280;2023-08-01T10:28:51;11.77;;;2.08;;
79578;SDS011;69051;52.406;5.280;2023-08-01T10:31:19;6.82;;;1.77;;
79578;SDS011;69051;52.406;5.280;2023-08-01T10:33:47;10.57;;;1.95;;
79578;SDS011;69051;52.406;5.280;2023-08-01T10:36:21;9.52;;;1.88;;
79578;SDS011;69051;52.406;5.280;2023-08-01T10:38:53;5.97;;;1.75;;
79578;SDS011;69051;52.406;5.280;2023-08-01T10:41:21;9.63;;;1.60;;
79578;SDS011;69051;52.406;5.280;2023-08-01T10:44:11;9.75;;;1.80;;
79578;SDS011;69051;52.406;5.280;2023-08-01T10:49:14;7.63;;;1.70;;
79578;SDS011;69051;52.406;5.280;2023-08-01T10:51:41;8.65;;;1.98;;
79578;SDS011;69051;52.406;5.280;2023-08-01T10:54:18;8.27;;;1.83;;
79578;SDS011;69051;52.406;5.280;2023-08-01T10:56:45;11.05;;;2.08;;
79578;SDS011;69051;52.406;5.280;2023-08-01T10:59:13;5.45;;;1.65;;
79578;SDS011;69051;52.406;5.280;2023-08-01T11:01:50;10.07;;;1.95;;
79578;SDS011;69051;52.406;5.280;2023-08-01T11:06:48;10.68;;;2.33;;
79578;SDS011;69051;52.406;5.280;2023-08-01T11:09:21;11.20;;;2.38;;
79578;SDS011;69051;52.406;5.280;2023-08-01T11:11:49;12.00;;;2.00;;
79578;SDS011;69051;52.406;5.280;2023-08-01T11:14:16;10.48;;;2.13;;
79578;SDS011;69051;52.406;5.280;2023-08-01T11:16:46;11.52;;;2.55;;
79578;SDS011;69051;52.406;5.280;2023-08-01T11:21:49;6.10;;;1.70;;
79578;SDS011;69051;52.406;5.280;2023-08-01T11:24:16;7.28;;;2.03;;
79578;SDS011;69051;52.406;5.280;2023-08-01T11:26:44;11.05;;;2.00;;
79578;SDS011;69051;52.406;5.280;2023-08-01T11:29:11;9.68;;;2.28;;
79578;SDS011;69051;52.406;5.280;2023-08-01T11:31:38;12.95;;;2.25;;
79578;SDS011;69051;52.406;5.280;2023-08-01T11:34:05;8.02;;;1.77;;
79578;SDS011;69051;52.406;5.280;2023-08-01T11:36:34;9.10;;;1.75;;
79578;SDS011;69051;52.406;5.280;2023-08-01T11:39:00;5.18;;;1.42;;
79578;SDS011;69051;52.406;5.280;2023-08-01T11:41:27;6.00;;;1.20;;
79578;SDS011;69051;52.406;5.280;2023-08-01T11:43:54;6.50;;;1.20;;
79578;SDS011;69051;52.406;5.280;2023-08-01T11:46:23;4.57;;;1.25;;
79578;SDS011;69051;52.406;5.280;2023-08-01T11:48:57;7.03;;;1.60;;
79578;SDS011;69051;52.406;5.280;2023-08-01T11:51:24;10.38;;;1.75;;
79578;SDS011;69051;52.406;5.280;2023-08-01T11:54:02;9.38;;;1.33;;
79578;SDS011;69051;52.406;5.280;2023-08-01T11:56:30;7.50;;;1.80;;
79578;SDS011;69051;52.406;5.280;2023-08-01T11:58:57;8.95;;;1.83;;
79578;SDS011;69051;52.406;5.280;2023-08-01T12:01:25;10.68;;;1.80;;
79578;SDS011;69051;52.406;5.280;2023-08-01T12:03:52;7.40;;;1.88;;
79578;SDS011;69051;52.406;5.280;2023-08-01T12:06:22;7.38;;;1.85;;
79578;SDS011;69051;52.406;5.280;2023-08-01T12:08:52;10.43;;;2.50;;
79578;SDS011;69051;52.406;5.280;2023-08-01T12:11:20;7.35;;;2.15;;
79578;SDS011;69051;52.406;5.280;2023-08-01T12:13:47;8.30;;;1.90;;
79578;SDS011;69051;52.406;5.280;2023-08-01T12:16:14;7.60;;;1.80;;
79578;SDS011;69051;52.406;5.280;2023-08-01T12:18:46;11.65;;;2.13;;
79578;SDS011;69051;52.406;5.280;2023-08-01T12:21:26;11.30;;;2.63;;
79578;SDS011;69051;52.406;5.280;2023-08-01T12:23:52;10.50;;;1.65;;
79578;SDS011;69051;52.406;5.280;2023-08-01T12:26:19;11.77;;;1.75;;
79578;SDS011;69051;52.406;5.280;2023-08-01T12:28:45;6.75;;;1.90;;
79578;SDS011;69051;52.406;5.280;2023-08-01T12:31:15;10.57;;;2.08;;
79578;SDS011;69051;52.406;5.280;2023-08-01T12:33:43;6.70;;;2.03;;
79578;SDS011;69051;52.406;5.280;2023-08-01T12:36:10;8.30;;;1.90;;
79578;SDS011;69051;52.406;5.280;2023-08-01T12:38:37;10.73;;;1.90;;
79578;SDS011;69051;52.406;5.280;2023-08-01T12:41:03;6.28;;;1.42;;
79578;SDS011;69051;52.406;5.280;2023-08-01T12:43:30;10.05;;;1.98;;
79578;SDS011;69051;52.406;5.280;2023-08-01T12:45:57;6.25;;;1.95;;
79578;SDS011;69051;52.406;5.280;2023-08-01T12:48:24;10.40;;;1.92;;
79578;SDS011;69051;52.406;5.280;2023-08-01T12:50:51;6.32;;;1.60;;
79578;SDS011;69051;52.406;5.280;2023-08-01T12:53:19;9.15;;;1.77;;
79578;SDS011;69051;52.406;5.280;2023-08-01T12:55:47;13.90;;;1.80;;
79578;SDS011;69051;52.406;5.280;2023-08-01T12:58:14;5.90;;;1.15;;
79578;SDS011;69051;52.406;5.280;2023-08-01T13:00:41;5.10;;;1.60;;
79578;SDS011;69051;52.406;5.280;2023-08-01T13:03:08;11.18;;;1.98;;
79578;SDS011;69051;52.406;5.280;2023-08-01T13:05:36;6.45;;;1.52;;
79578;SDS011;69051;52.406;5.280;2023-08-01T13:08:03;7.65;;;1.65;;
79578;SDS011;69051;52.406;5.280;2023-08-01T13:10:32;7.05;;;1.70;;
79578;SDS011;69051;52.406;5.280;2023-08-01T13:12:59;10.60;;;1.70;;
79578;SDS011;69051;52.406;5.280;2023-08-01T13:15:26;10.18;;;2.13;;
79578;SDS011;69051;52.406;5.280;2023-08-01T13:17:52;7.32;;;1.80;;
79578;SDS011;69051;52.406;5.280;2023-08-01T13:20:19;7.70;;;2.05;;
79578;SDS011;69051;52.406;5.280;2023-08-01T13:22:46;16.80;;;2.00;;
79578;SDS011;69051;52.406;5.280;2023-08-01T13:25:14;9.13;;;1.83;;
79578;SDS011;69051;52.406;5.280;2023-08-01T13:27:42;8.07;;;1.88;;
79578;SDS011;69051;52.406;5.280;2023-08-01T13:30:09;9.73;;;1.67;;
79578;SDS011;69051;52.406;5.280;2023-08-01T13:32:36;7.53;;;1.80;;
79578;SDS011;69051;52.406;5.280;2023-08-01T13:35:02;7.45;;;2.05;;
79578;SDS011;69051;52.406;5.280;2023-08-01T13:37:29;8.55;;;2.38;;
79578;SDS011;69051;52.406;5.280;2023-08-01T13:39:57;10.02;;;1.85;;
79578;SDS011;69051;52.406;5.280;2023-08-01T13:42:24;8.43;;;1.83;;
79578;SDS011;69051;52.406;5.280;2023-08-01T13:44:50;8.60;;;1.90;;
79578;SDS011;69051;52.406;5.280;2023-08-01T13:47:17;10.13;;;2.30;;
79578;SDS011;69051;52.406;5.280;2023-08-01T13:49:43;7.60;;;1.85;;
79578;SDS011;69051;52.406;5.280;2023-08-01T13:52:10;10.32;;;1.90;;
79578;SDS011;69051;52.406;5.280;2023-08-01T13:54:36;10.90;;;2.03;;
79578;SDS011;69051;52.406;5.280;2023-08-01T13:57:03;11.23;;;2.00;;
79578;SDS011;69051;52.406;5.280;2023-08-01T13:59:29;7.50;;;2.25;;
79578;SDS011;69051;52.406;5.280;2023-08-01T14:01:56;9.35;;;2.10;;
79578;SDS011;69051;52.406;5.280;2023-08-01T14:04:23;7.65;;;2.17;;
79578;SDS011;69051;52.406;5.280;2023-08-01T14:06:49;8.70;;;2.50;;
79578;SDS011;69051;52.406;5.280;2023-08-01T14:09:16;10.00;;;2.40;;
79578;SDS011;69051;52.406;5.280;2023-08-01T14:11:42;8.93;;;2.00;;
79578;SDS011;69051;52.406;5.280;2023-08-01T14:14:09;7.63;;;1.95;;
79578;SDS011;69051;52.406;5.280;2023-08-01T14:16:35;5.50;;;1.50;;
79578;SDS011;69051;52.406;5.280;2023-08-01T14:19:03;9.30;;;1.77;;
79578;SDS011;69051;52.406;5.280;2023-08-01T14:21:34;6.70;;;1.92;;
79578;SDS011;69051;52.406;5.280;2023-08-01T14:24:02;4.97;;;1.67;;
79578;SDS011;69051;52.406;5.280;2023-08-01T14:26:29;10.95;;;1.60;;
79578;SDS011;69051;52.406;5.280;2023-08-01T14:28:56;3.63;;;1.42;;
79578;SDS011;69051;52.406;5.280;2023-08-01T14:31:24;6.22;;;1.55;;
79578;SDS011;69051;52.406;5.280;2023-08-01T14:33:51;6.93;;;1.67;;
79578;SDS011;69051;52.406;5.280;2023-08-01T14:36:18;6.93;;;1.50;;
79578;SDS011;69051;52.406;5.280;2023-08-01T14:38:45;8.50;;;2.15;;
79578;SDS011;69051;52.406;5.280;2023-08-01T14:41:15;10.95;;;2.20;;
79578;SDS011;69051;52.406;5.280;2023-08-01T14:44:04;10.00;;;2.05;;
79578;SDS011;69051;52.406;5.280;2023-08-01T14:46:30;9.63;;;1.90;;
79578;SDS011;69051;52.406;5.280;2023-08-01T14:48:57;10.45;;;1.92;;